TimeEST,TemperatureF,Dew PointF,Humidity,Sea Level PressureIn,VisibilityMPH,Wind Direction,Wind SpeedMPH,Gust SpeedMPH,PrecipitationIn,Events,Conditions,WindDirDegrees,DateUTC
12:15 AM,37.4,30.2,75,30.07,10.0,Calm,Calm,-,N/A,,Clear,0,2013-02-15 05:15:00
12:35 AM,33.8,30.2,87,30.07,10.0,Calm,Calm,-,N/A,,Clear,0,2013-02-15 05:35:00
12:55 AM,35.6,32.0,87,30.07,10.0,Calm,Calm,-,N/A,,Clear,0,2013-02-15 05:55:00
1:15 AM,33.8,30.2,87,30.07,10.0,Calm,Calm,-,N/A,,Clear,0,2013-02-15 06:15:00
1:35 AM,35.6,30.2,81,30.06,10.0,Calm,Calm,-,N/A,,Clear,0,2013-02-15 06:35:00
1:55 AM,32.0,28.4,87,30.06,7.0,Calm,Calm,-,N/A,,Clear,0,2013-02-15 06:55:00
2:15 AM,32.0,30.2,93,30.06,7.0,Calm,Calm,-,N/A,,Clear,0,2013-02-15 07:15:00
2:35 AM,33.8,30.2,87,30.06,7.0,Calm,Calm,-,N/A,,Clear,0,2013-02-15 07:35:00
2:55 AM,32.0,30.2,93,30.07,7.0,Calm,Calm,-,N/A,,Clear,0,2013-02-15 07:55:00
3:15 AM,33.8,30.2,87,30.07,10.0,Calm,Calm,-,N/A,,Clear,0,2013-02-15 08:15:00
3:35 AM,33.8,30.2,87,30.07,7.0,Calm,Calm,-,N/A,,Clear,0,2013-02-15 08:35:00
3:55 AM,32.0,28.4,87,30.07,10.0,Calm,Calm,-,N/A,,Clear,0,2013-02-15 08:55:00
4:15 AM,32.0,26.6,80,30.07,5.0,Calm,Calm,-,N/A,,Haze,0,2013-02-15 09:15:00
4:35 AM,32.0,30.2,93,30.07,10.0,Calm,Calm,-,N/A,,Clear,0,2013-02-15 09:35:00
4:55 AM,32.0,28.4,87,30.07,5.0,Calm,Calm,-,N/A,,Clear,0,2013-02-15 09:55:00
5:15 AM,32.0,26.6,80,30.07,5.0,North,3.5,-,N/A,,Haze,10,2013-02-15 10:15:00
5:35 AM,32.0,28.4,87,30.08,7.0,NNE,3.5,-,N/A,,Clear,20,2013-02-15 10:35:00
5:55 AM,32.0,28.4,87,30.08,5.0,Calm,Calm,-,N/A,,Clear,0,2013-02-15 10:55:00
6:15 AM,32.0,26.6,80,30.09,5.0,North,3.5,-,N/A,,Haze,350,2013-02-15 11:15:00
6:35 AM,32.0,28.4,87,30.09,5.0,North,3.5,-,N/A,,Clear,10,2013-02-15 11:35:00
6:55 AM,30.2,26.6,86,30.09,7.0,North,3.5,-,N/A,,Clear,360,2013-02-15 11:55:00
7:15 AM,32.0,26.6,80,30.09,5.0,Calm,Calm,-,N/A,,Haze,0,2013-02-15 12:15:00
7:35 AM,30.2,26.6,86,30.10,5.0,Calm,Calm,-,N/A,,Clear,0,2013-02-15 12:35:00
7:55 AM,32.0,28.4,87,30.11,5.0,Calm,Calm,-,N/A,,Clear,0,2013-02-15 12:55:00
8:15 AM,32.0,28.4,87,30.11,5.0,Calm,Calm,-,N/A,,Clear,0,2013-02-15 13:15:00
8:35 AM,33.8,32.0,93,30.11,10.0,Calm,Calm,-,N/A,,Clear,0,2013-02-15 13:35:00
8:55 AM,35.6,32.0,87,30.11,10.0,Calm,Calm,-,N/A,,Clear,0,2013-02-15 13:55:00
9:15 AM,37.4,32.0,81,30.11,10.0,Calm,Calm,-,N/A,,Clear,0,2013-02-15 14:15:00
9:35 AM,42.8,32.0,66,30.11,10.0,Calm,Calm,-,N/A,,Clear,0,2013-02-15 14:35:00
9:55 AM,46.4,32.0,57,30.11,10.0,Calm,Calm,-,N/A,,Clear,0,2013-02-15 14:55:00
10:15 AM,46.4,32.0,57,30.11,10.0,SSE,3.5,-,N/A,,Clear,160,2013-02-15 15:15:00
10:35 AM,48.2,32.0,54,30.11,10.0,SSE,3.5,-,N/A,,Clear,160,2013-02-15 15:35:00
10:55 AM,50.0,32.0,50,30.11,10.0,South,4.6,-,N/A,,Clear,180,2013-02-15 15:55:00
11:15 AM,51.8,30.2,44,30.11,10.0,Calm,Calm,-,N/A,,Clear,0,2013-02-15 16:15:00
11:35 AM,55.4,28.4,36,30.09,10.0,SE,3.5,-,N/A,,Clear,140,2013-02-15 16:35:00
11:55 AM,59.0,24.8,27,30.09,10.0,WSW,4.6,-,N/A,,Clear,250,2013-02-15 16:55:00
12:15 PM,59.0,23.0,25,30.08,10.0,WSW,6.9,-,N/A,,Clear,240,2013-02-15 17:15:00
12:55 PM,59.0,15.8,19,30.07,10.0,West,8.1,-,N/A,,Clear,280,2013-02-15 17:55:00
1:15 PM,60.8,14.0,16,30.06,10.0,SW,3.5,-,N/A,,Scattered Clouds,230,2013-02-15 18:15:00
1:35 PM,60.8,12.2,15,30.04,10.0,WSW,6.9,-,N/A,,Scattered Clouds,240,2013-02-15 18:35:00
1:55 PM,59.0,15.8,19,30.03,10.0,West,6.9,-,N/A,,Clear,270,2013-02-15 18:55:00
2:15 PM,60.8,17.6,19,30.02,10.0,SW,10.4,-,N/A,,Scattered Clouds,230,2013-02-15 19:15:00
2:35 PM,60.8,14.0,16,30.02,10.0,WNW,8.1,16.1,N/A,,Scattered Clouds,300,2013-02-15 19:35:00
2:55 PM,59.0,15.8,19,30.01,10.0,West,6.9,-,N/A,,Scattered Clouds,280,2013-02-15 19:55:00
3:15 PM,60.8,14.0,16,30.00,10.0,WNW,8.1,-,N/A,,Scattered Clouds,290,2013-02-15 20:15:00
3:35 PM,60.8,8.6,13,29.99,10.0,West,6.9,-,N/A,,Clear,270,2013-02-15 20:35:00
3:55 PM,60.8,10.4,14,29.99,10.0,West,9.2,-,N/A,,Clear,270,2013-02-15 20:55:00
4:15 PM,60.8,6.8,12,29.99,10.0,WNW,8.1,-,N/A,,Scattered Clouds,290,2013-02-15 21:15:00
4:35 PM,59.0,12.2,16,29.99,10.0,West,4.6,-,N/A,,Scattered Clouds,270,2013-02-15 21:35:00
4:55 PM,59.0,12.2,16,29.99,10.0,WSW,8.1,-,N/A,,Mostly Cloudy,250,2013-02-15 21:55:00
5:15 PM,57.2,17.6,21,29.99,10.0,WSW,6.9,-,N/A,,Mostly Cloudy,250,2013-02-15 22:15:00
5:35 PM,55.4,23.0,29,29.99,10.0,West,5.8,-,N/A,,Overcast,270,2013-02-15 22:35:00
5:55 PM,55.4,23.0,29,29.99,10.0,West,4.6,-,N/A,,Overcast,270,2013-02-15 22:55:00
6:15 PM,53.6,30.2,41,30.01,10.0,West,8.1,-,N/A,Rain,Rain,270,2013-02-15 23:15:00
6:35 PM,50.0,35.6,58,30.01,10.0,WNW,4.6,-,N/A,Rain,Light Rain,300,2013-02-15 23:35:00
6:55 PM,46.4,37.4,71,30.01,2.5,NW,9.2,-,N/A,Rain,Rain,320,2013-02-15 23:55:00
7:15 PM,44.6,39.2,81,30.01,10.0,NW,6.9,-,N/A,,Scattered Clouds,310,2013-02-16 00:15:00
7:35 PM,44.6,37.4,76,30.02,7.0,NW,8.1,-,N/A,,Clear,320,2013-02-16 00:35:00
7:55 PM,42.8,37.4,81,30.02,10.0,NW,8.1,-,N/A,,Clear,320,2013-02-16 00:55:00
8:15 PM,42.8,35.6,76,30.03,10.0,NW,5.8,-,N/A,,Clear,320,2013-02-16 01:15:00
8:35 PM,42.8,35.6,76,30.02,10.0,NW,6.9,-,N/A,,Clear,320,2013-02-16 01:35:00
8:55 PM,42.8,33.8,70,30.03,10.0,NW,4.6,-,N/A,,Scattered Clouds,310,2013-02-16 01:55:00
9:15 PM,42.8,33.8,70,30.03,10.0,NW,3.5,-,N/A,,Scattered Clouds,310,2013-02-16 02:15:00
9:35 PM,42.8,32.0,66,30.04,10.0,NW,4.6,-,N/A,,Mostly Cloudy,310,2013-02-16 02:35:00
9:55 PM,42.8,32.0,66,30.04,10.0,NW,5.8,-,N/A,,Overcast,320,2013-02-16 02:55:00
10:15 PM,42.8,32.0,66,30.04,10.0,NW,4.6,-,N/A,,Overcast,320,2013-02-16 03:15:00
10:35 PM,41.0,32.0,70,30.04,10.0,NW,3.5,-,N/A,,Mostly Cloudy,320,2013-02-16 03:35:00
10:55 PM,42.8,32.0,66,30.04,10.0,NW,4.6,-,N/A,,Mostly Cloudy,320,2013-02-16 03:55:00
11:15 PM,41.0,32.0,70,30.03,10.0,Calm,Calm,-,N/A,,Mostly Cloudy,0,2013-02-16 04:15:00
11:35 PM,41.0,32.0,70,30.02,10.0,NW,4.6,-,N/A,,Scattered Clouds,320,2013-02-16 04:35:00
11:55 PM,39.2,30.2,70,30.02,10.0,NW,4.6,-,N/A,,Clear,310,2013-02-16 04:55:00